createdAt,value
2023-05-05T00:08:19.194Z,14.5
2023-05-05T00:10:24.396Z,14.3
2023-05-05T00:14:28.558Z,14.3
2023-05-05T00:16:30.657Z,14.4
2023-05-05T00:18:32.735Z,14.3
2023-05-05T00:20:34.804Z,14.2
2023-05-05T00:22:36.875Z,14.2
2023-05-05T00:24:42.122Z,14.1
2023-05-05T00:26:44.206Z,14.1
2023-05-05T00:28:46.252Z,14.1
2023-05-05T00:42:04.520Z,14
2023-05-05T00:48:10.850Z,14
2023-05-05T00:52:18.065Z,14
2023-05-05T00:54:20.136Z,13.9
2023-05-05T00:56:22.267Z,14
2023-05-05T00:58:24.301Z,14
2023-05-05T01:00:26.397Z,13.9
2023-05-05T01:02:28.510Z,14
2023-05-05T01:28:02.327Z,13.7
2023-05-05T01:30:04.487Z,13.7
2023-05-05T01:32:06.518Z,13.7
2023-05-05T01:34:11.719Z,13.7
2023-05-05T01:36:13.805Z,13.7
2023-05-05T01:38:15.870Z,13.8
2023-05-05T01:46:24.235Z,13.9
2023-05-05T01:48:29.418Z,14
2023-05-05T01:50:31.483Z,14
2023-05-05T01:52:33.536Z,14
2023-05-05T02:00:41.848Z,14.3
2023-05-05T02:08:53.324Z,14.5
2023-05-05T02:10:55.392Z,14.4
2023-05-05T02:12:57.500Z,14.5
2023-05-05T02:22:11.542Z,15
2023-05-05T02:24:13.655Z,15.1
2023-05-05T02:26:15.719Z,15.2
2023-05-05T02:28:17.778Z,15.1
2023-05-05T02:30:23.020Z,15.1
2023-05-05T02:32:25.130Z,15.2
2023-05-05T02:36:29.256Z,15.2
2023-05-05T02:38:31.328Z,15.1
2023-05-05T02:40:33.400Z,15.2
2023-05-05T02:42:35.503Z,15.1
2023-05-05T02:44:40.700Z,15.1
2023-05-05T02:48:44.966Z,15.1
2023-05-05T02:50:46.952Z,15.1
2023-05-05T02:52:49.057Z,15
2023-05-05T02:56:53.216Z,14.9
2023-05-05T02:58:58.464Z,14.8
2023-05-05T03:01:02.095Z,14.9
2023-05-05T03:03:04.213Z,14.8
2023-05-05T03:05:06.224Z,14.7
2023-05-05T03:07:08.319Z,14.7
2023-05-05T03:09:10.412Z,14.7
2023-05-05T03:11:12.496Z,14.6
2023-05-05T03:13:17.749Z,14.6
2023-05-05T03:15:19.803Z,14.6
2023-05-05T03:17:21.912Z,14.4
2023-05-05T03:19:50.560Z,14.4
2023-05-05T03:21:52.639Z,14.4
2023-05-05T03:23:54.734Z,14.3
2023-05-05T03:25:59.955Z,14.3
2023-05-05T03:28:02.041Z,14.2
2023-05-05T03:30:04.132Z,14.2
2023-05-05T03:32:06.317Z,14.2
2023-05-05T03:34:08.278Z,14.2
2023-05-05T03:36:10.383Z,14.2
2023-05-05T03:38:12.443Z,14.1
2023-05-05T03:40:17.683Z,14.1
2023-05-05T03:42:19.762Z,14
2023-05-05T03:44:21.825Z,14
2023-05-05T03:46:23.909Z,14.1
2023-05-05T03:48:25.975Z,14
2023-05-05T03:50:28.069Z,14.1
2023-05-05T03:52:30.129Z,14.1
2023-05-05T03:54:35.343Z,14
2023-05-05T03:56:37.431Z,13.9
2023-05-05T03:58:39.532Z,13.8
2023-05-05T04:00:41.585Z,13.9
2023-05-05T04:02:43.963Z,13.9
2023-05-05T04:06:47.826Z,13.8
2023-05-05T04:10:55.127Z,13.8
2023-05-05T04:13:59.809Z,13.7
2023-05-05T04:16:01.920Z,13.7
2023-05-05T04:18:03.995Z,13.6
2023-05-05T04:28:19.063Z,13.6
2023-05-05T04:34:23.707Z,13.7
2023-05-05T04:52:48.763Z,13.6
2023-05-05T04:58:54.889Z,13.7
2023-05-05T05:00:56.944Z,13.8
2023-05-05T05:02:59.070Z,13.8
2023-05-05T05:05:04.244Z,13.8
2023-05-05T05:09:08.345Z,13.9
2023-05-05T05:10:11.138Z,14
2023-05-05T05:14:15.132Z,14.1
2023-05-05T05:16:17.221Z,14.1
2023-05-05T05:18:22.402Z,14.1
2023-05-05T05:20:24.484Z,14
2023-05-05T05:22:26.549Z,14.1
2023-05-05T05:24:28.615Z,14
2023-05-05T05:26:30.680Z,14.1
2023-05-05T05:28:32.757Z,14.2
2023-05-05T05:30:34.842Z,14.3
2023-05-05T05:36:44.188Z,14.4
2023-05-05T05:38:46.255Z,14.6
2023-05-05T05:40:48.319Z,14.6
2023-05-05T05:42:50.414Z,14.6
2023-05-05T05:44:52.475Z,14.6
2023-05-05T06:06:22.122Z,15.4
2023-05-05T06:08:25.117Z,15.3
2023-05-05T06:10:27.907Z,15.4
2023-05-05T06:12:28.346Z,15.7
2023-05-05T06:14:33.583Z,15.7
2023-05-05T06:18:37.750Z,16
2023-05-05T06:20:39.804Z,16
2023-05-05T06:22:41.900Z,16.1
2023-05-05T06:24:43.968Z,16.2
2023-05-05T06:26:46.071Z,16.2
2023-05-05T06:30:53.360Z,16.3
2023-05-05T06:32:55.497Z,16.2
2023-05-05T06:34:57.552Z,16.4
2023-05-05T06:36:59.646Z,16.4
2023-05-05T06:39:01.735Z,16.4
2023-05-05T06:41:03.793Z,16.3
2023-05-05T06:43:09.050Z,16.5
2023-05-05T06:51:17.355Z,16.9
2023-05-05T06:53:19.468Z,17.2
2023-05-05T06:55:21.537Z,17.2
2023-05-05T06:59:28.948Z,17.3
2023-05-05T07:01:30.988Z,17.4
2023-05-05T07:03:59.605Z,17.6
2023-05-05T07:06:01.656Z,17.7
2023-05-05T07:08:03.769Z,17.8
2023-05-05T07:10:09.173Z,18
2023-05-05T07:12:11.053Z,18
2023-05-05T07:14:13.159Z,18.2
2023-05-05T07:16:15.226Z,18.1
2023-05-05T07:18:17.321Z,18.3
2023-05-05T07:20:19.404Z,18.3
2023-05-05T07:22:21.489Z,18.3
2023-05-05T07:24:26.730Z,18.5
2023-05-05T07:26:28.802Z,18.6
2023-05-05T07:30:33.019Z,18.8
2023-05-05T07:36:39.248Z,19.2
2023-05-05T07:40:46.582Z,19.2
2023-05-05T07:42:48.637Z,19.2
2023-05-05T07:44:50.717Z,19.4
2023-05-05T07:46:52.823Z,19.5
2023-05-05T07:50:56.993Z,19.5
2023-05-05T07:55:04.341Z,19.4
2023-05-05T07:57:06.390Z,19.5
2023-05-05T07:58:09.059Z,19.7
2023-05-05T08:00:11.648Z,19.7
2023-05-05T08:02:13.197Z,19.6
2023-05-05T08:04:15.364Z,19.4
2023-05-05T08:06:20.513Z,19.3
2023-05-05T08:08:22.590Z,19.3
2023-05-05T08:10:24.745Z,19.7
2023-05-05T08:14:28.854Z,19.6
2023-05-05T08:16:31.181Z,19.7
2023-05-05T08:18:33.043Z,19.7
2023-05-05T08:20:38.256Z,19.5
2023-05-05T08:22:40.335Z,19.6
2023-05-05T08:30:48.675Z,20.1
2023-05-05T08:32:50.797Z,20.2
2023-05-05T08:54:22.016Z,20.1
2023-05-05T08:56:24.047Z,19.9
2023-05-05T08:58:28.813Z,20.2
2023-05-05T09:04:35.567Z,21.1
2023-05-05T09:06:37.629Z,20.8
2023-05-05T09:08:39.755Z,20.8
2023-05-05T09:20:56.806Z,20.4
2023-05-05T09:27:01.587Z,20.4
2023-05-05T09:29:03.649Z,20.5
2023-05-05T09:33:10.998Z,20.2
2023-05-05T09:35:13.021Z,20.2
2023-05-05T09:37:15.105Z,20.5
2023-05-05T09:39:17.173Z,20.5
2023-05-05T09:43:21.336Z,20.8
2023-05-05T09:45:26.552Z,20.9
2023-05-05T09:47:29.859Z,20.6
2023-05-05T09:49:30.708Z,20.7
2023-05-05T10:17:06.565Z,20.2
2023-05-05T10:19:08.643Z,20.3
2023-05-05T10:21:10.727Z,20.3
2023-05-05T10:23:12.790Z,20.4
2023-05-05T10:27:20.105Z,20.1
2023-05-05T10:29:22.171Z,20
2023-05-05T10:31:26.505Z,19.9
2023-05-05T10:33:31.973Z,19.9
2023-05-05T10:35:28.408Z,19.8
2023-05-05T10:39:32.532Z,19.8
2023-05-05T10:41:37.786Z,19.9
2023-05-05T10:43:39.847Z,20.1
2023-05-05T10:45:42.014Z,20.3
2023-05-05T10:48:10.564Z,20.1
2023-05-05T10:58:24.018Z,20.2
2023-05-05T11:10:39.621Z,20.9
2023-05-05T11:16:45.995Z,21.1
2023-05-05T11:18:47.898Z,21.3
2023-05-05T11:20:49.970Z,21.2
2023-05-05T11:22:55.190Z,20.5
2023-05-05T11:24:57.270Z,20.5
2023-05-05T11:26:59.325Z,20.6
2023-05-05T11:29:01.390Z,19.8
2023-05-05T11:31:03.510Z,18.9
2023-05-05T11:35:07.642Z,18.2
2023-05-05T11:42:19.636Z,16.8
2023-05-05T11:44:21.716Z,16.6
2023-05-05T11:46:23.881Z,16.4
2023-05-05T11:58:39.472Z,14.9
2023-05-05T12:00:41.601Z,14.8
2023-05-05T12:06:51.017Z,14.2
2023-05-05T12:08:53.119Z,14
2023-05-05T12:10:55.222Z,13.9
2023-05-05T12:21:08.820Z,13.4
2023-05-05T12:23:10.905Z,13.4
2023-05-05T12:27:15.092Z,13.5
2023-05-05T12:31:19.292Z,13.4
2023-05-05T12:33:24.470Z,13.4
2023-05-05T12:35:26.573Z,13.4
2023-05-05T12:37:28.662Z,13.4
2023-05-05T12:38:31.268Z,13.4
2023-05-05T12:40:33.366Z,13.4
2023-05-05T12:42:35.432Z,13.4
2023-05-05T12:44:37.505Z,13.3
2023-05-05T12:46:42.734Z,13.4
2023-05-05T12:48:47.977Z,13.4
2023-05-05T12:50:46.880Z,13.4
2023-05-05T12:52:48.974Z,13.4
2023-05-05T12:56:53.111Z,13.4
2023-05-05T12:58:55.180Z,13.4
2023-05-05T13:01:00.466Z,13.4
2023-05-05T13:03:02.559Z,13.4
2023-05-05T13:05:04.561Z,13.4
2023-05-05T13:07:06.643Z,13.5
2023-05-05T13:19:22.222Z,13.6
2023-05-05T13:21:24.272Z,13.6
2023-05-05T13:23:26.360Z,13.6
2023-05-05T13:25:28.485Z,13.7
2023-05-05T13:27:30.513Z,13.8
2023-05-05T13:29:35.732Z,13.9
2023-05-05T13:31:37.837Z,14
2023-05-05T13:33:39.844Z,14
2023-05-05T13:34:42.464Z,13.9
2023-05-05T13:40:48.701Z,13.9
2023-05-05T13:42:53.922Z,14
2023-05-05T13:46:58.111Z,14.1
2023-05-05T13:51:02.199Z,14.1
2023-05-05T13:53:04.279Z,14.1
2023-05-05T14:03:17.792Z,14.1
2023-05-05T14:25:46.930Z,14.8
2023-05-05T14:34:21.867Z,14.5
2023-05-05T14:36:23.935Z,14.3
2023-05-05T14:38:29.206Z,14.2
2023-05-05T14:42:33.300Z,14.2
2023-05-05T14:44:36.973Z,14.3
2023-05-05T14:46:38.996Z,14.3
2023-05-05T14:48:41.102Z,14.3
2023-05-05T14:50:43.175Z,14.3
2023-05-05T14:52:48.378Z,14.5
2023-05-05T14:54:50.484Z,14.5
2023-05-05T14:56:52.545Z,14.5
2023-05-05T14:58:54.611Z,14.5
2023-05-05T15:02:58.808Z,14.8
2023-05-05T15:07:06.068Z,15.4
2023-05-05T15:11:10.232Z,15.6
2023-05-05T15:13:12.341Z,15.7
2023-05-05T15:15:14.387Z,15.9
2023-05-05T15:17:16.504Z,16
2023-05-05T15:19:18.553Z,16
2023-05-05T15:21:23.785Z,16.1
2023-05-05T15:23:25.854Z,16.2
2023-05-05T15:25:27.935Z,16.4
2023-05-05T15:36:44.089Z,15.7
2023-05-05T15:38:46.175Z,15.8
2023-05-05T15:40:50.064Z,16
2023-05-05T15:51:01.819Z,18.3
2023-05-05T15:53:03.897Z,18.4
2023-05-05T15:55:06.074Z,18.1
2023-05-05T15:57:08.057Z,18
2023-05-05T15:59:10.141Z,17.4
2023-05-05T16:01:12.288Z,17.2
2023-05-05T16:03:17.513Z,17.7
2023-05-05T16:05:20.719Z,18
2023-05-05T16:07:21.644Z,18.4
2023-05-05T16:09:23.697Z,19.5
2023-05-05T16:11:25.741Z,20
2023-05-05T16:13:27.844Z,20.8
2023-05-05T16:15:29.878Z,20.9
2023-05-05T16:19:37.203Z,21.9
2023-05-05T16:22:41.854Z,20.5
2023-05-05T16:24:44.395Z,19.6
2023-05-05T16:26:45.976Z,18.3
2023-05-05T16:28:48.033Z,18.2
2023-05-05T16:30:53.261Z,17.5
2023-05-05T16:36:59.495Z,17.4
2023-05-05T16:39:01.554Z,17.1
2023-05-05T16:41:03.684Z,17
2023-05-05T16:43:05.711Z,17.2
2023-05-05T16:45:11.036Z,17
2023-05-05T16:47:13.044Z,16.8
2023-05-05T16:53:19.281Z,16.6
2023-05-05T16:55:21.371Z,16.7
2023-05-05T16:57:23.442Z,16.4
2023-05-05T16:59:30.312Z,16
2023-05-05T17:01:30.832Z,16.1
2023-05-05T17:03:32.885Z,16
2023-05-05T17:05:35.038Z,15.8
2023-05-05T17:07:37.055Z,15.8
2023-05-05T17:09:39.147Z,15.8
2023-05-05T17:11:41.223Z,15.8
2023-05-05T17:13:46.453Z,16.1
2023-05-05T17:15:48.589Z,16.2
2023-05-05T17:18:53.261Z,16.1
2023-05-05T17:20:55.357Z,16.1
2023-05-05T17:22:57.434Z,16
2023-05-05T17:24:59.526Z,16
2023-05-05T17:27:04.779Z,15.8
2023-05-05T17:29:06.849Z,15.9
2023-05-05T17:31:08.930Z,15.9
2023-05-05T17:33:11.036Z,15.9
2023-05-05T17:35:13.122Z,16.1
2023-05-05T17:37:15.216Z,16
2023-05-05T17:41:22.524Z,15.8
2023-05-05T17:43:24.621Z,15.9
2023-05-05T17:45:26.680Z,15.8
2023-05-05T17:49:30.865Z,15.7
2023-05-05T17:51:32.956Z,15.9
2023-05-05T17:53:35.037Z,16
2023-05-05T17:55:40.257Z,15.9
2023-05-05T17:59:44.431Z,16
2023-05-05T18:03:48.664Z,16
2023-05-05T18:05:50.681Z,15.8
2023-05-05T18:18:32.998Z,15.8
2023-05-05T18:30:48.495Z,15.4
2023-05-05T18:45:06.306Z,15.2
2023-05-05T18:53:17.673Z,15.2
2023-05-05T18:57:21.787Z,15
2023-05-05T19:07:36.037Z,14.8
2023-05-05T19:10:40.003Z,14.8
2023-05-05T19:12:42.117Z,14.8
2023-05-05T19:14:44.141Z,14.7
2023-05-05T19:16:46.314Z,14.7
2023-05-05T19:20:53.501Z,14.6
2023-05-05T19:37:13.251Z,14.1
2023-05-05T19:39:15.979Z,14.1
2023-05-05T19:41:17.393Z,14.1
2023-05-05T19:43:19.454Z,14
2023-05-05T19:53:32.990Z,13.9
2023-05-05T19:55:35.074Z,13.9
2023-05-05T19:57:37.151Z,13.8
2023-05-05T19:59:39.192Z,13.8
2023-05-05T20:03:46.623Z,13.8
2023-05-05T20:05:48.585Z,13.8
2023-05-05T20:06:51.172Z,13.8
2023-05-05T20:17:04.689Z,13.6
2023-05-05T20:23:10.925Z,13.4
2023-05-05T20:25:12.988Z,13.5
2023-05-05T20:27:15.070Z,13.5
2023-05-05T20:31:22.353Z,13.4
2023-05-05T20:51:47.757Z,13.1
2023-05-05T20:55:51.882Z,13.1
2023-05-05T21:03:03.845Z,13
2023-05-05T21:05:05.893Z,13
2023-05-05T21:07:07.963Z,13
2023-05-05T21:09:10.037Z,12.8
2023-05-05T21:11:15.246Z,12.7
2023-05-05T21:13:17.353Z,12.6
2023-05-05T21:15:19.386Z,12.6
2023-05-05T21:17:21.471Z,12.5
2023-05-05T21:19:23.480Z,12.5
2023-05-05T21:21:25.559Z,12.5
2023-05-05T21:23:27.597Z,12.4
2023-05-05T21:25:32.816Z,12.4
2023-05-05T21:27:34.862Z,12.3
2023-05-05T21:29:36.919Z,12.3
2023-05-05T21:31:39.047Z,12.3
2023-05-05T21:33:41.044Z,12.2
2023-05-05T21:35:43.096Z,12.2
2023-05-05T21:37:45.156Z,12.3
2023-05-05T21:41:52.408Z,12.2
2023-05-05T21:43:54.510Z,12.2
2023-05-05T21:45:56.552Z,12
2023-05-05T21:47:58.663Z,12.1
2023-05-05T21:52:02.714Z,12
2023-05-05T21:54:07.929Z,11.9
2023-05-05T21:58:12.126Z,12
2023-05-05T22:02:42.919Z,12.1
2023-05-05T22:04:44.887Z,12.1
2023-05-05T22:10:54.207Z,12
2023-05-05T22:12:56.406Z,12
2023-05-05T22:14:58.448Z,11.8
2023-05-05T22:17:00.467Z,11.8
2023-05-05T22:19:02.650Z,11.8
2023-05-05T22:21:07.917Z,11.8
2023-05-05T22:23:10.057Z,11.7
2023-05-05T22:25:12.239Z,11.7
2023-05-05T22:27:14.277Z,11.7
2023-05-05T22:29:16.429Z,11.7
2023-05-05T22:31:18.537Z,11.7
2023-05-05T22:33:20.631Z,11.6
2023-05-05T22:35:25.897Z,11.5
2023-05-05T22:37:27.964Z,11.5
2023-05-05T22:39:30.094Z,11.5
2023-05-05T22:41:32.141Z,11.5
2023-05-05T22:49:43.939Z,11.4
2023-05-05T22:51:45.911Z,11.4
2023-05-05T22:53:47.965Z,11.4
2023-05-05T22:56:52.687Z,11.4
2023-05-05T22:58:54.750Z,11.4
2023-05-05T23:00:56.925Z,11.3
2023-05-05T23:03:02.351Z,11.3
2023-05-05T23:21:24.327Z,11.5
2023-05-05T23:23:26.470Z,11.6
2023-05-05T23:25:28.611Z,11.6
2023-05-05T23:27:30.761Z,11.5
2023-05-05T23:37:44.542Z,11.4
2023-05-05T23:51:02.846Z,11
2023-05-05T23:53:04.994Z,11
2023-05-05T23:57:09.281Z,11.1
